Terminal Aerodrome Forecast
Issued by NWS Melbourne, FL

Home | Current Version | Previous Version | Text Only | Print | Product List | Glossary On
Versions: 1 2 3 4 5 6 7 8 9 10 11 12 13 14
852
FTUS42 KMLB 271417 AAA
TAFDAB
TAF AMD
KDAB 271417Z 2714/2812 32004KT P6SM SCT010
      TEMPO 2714/2716 BKN010
     FM271900 04007KT P6SM SCT035
     FM272100 09008KT P6SM VCSH SCT040
     FM280000 22003KT P6SM FEW030 SCT250
     FM280600 25003KT P6SM FEW250=

USA.gov is the U.S. government's official web portal to all federal, state and local government web resources and services.